airchina.com.cn alexa rank chart, airchina.com.cn alexa rank daily changes

airchina.com.cn alexa rank chart, airchina.com.cn alexa rank daily changes

airchina.com.cn
Actual rank:
29 815

RANK HISTORY

Date Rank Diff
2018/05/26 29 815 +19 621
2018/05/25 10 194 +1 435
2018/05/24 8 759 -280
2018/05/23 9 039 +262
2018/05/22 8 777 -1 974
2018/05/21 10 751 +474
2018/05/20 10 277 +3 281
2018/05/19 6 996 -4 287
2018/05/18 11 283 -177
2018/05/17 11 460 +5 068
2018/05/16 6 392 -8 692
2018/05/15 15 084 +4 083
2018/05/14 11 001 -728
2018/05/13 11 729 -1 769
2018/05/12 13 498 +2 908
2018/05/11 10 590 -800
2018/05/10 11 390 -1 311
2018/05/09 12 701 -953
2018/05/08 13 654 -248
2018/05/07 13 902 -10 339
2018/05/06 24 241 +11 623
2018/05/05 12 618 +2 328
2018/05/04 10 290 -4 203
2018/05/03 14 493 +1 450
2018/05/02 13 043 -1 274
2018/05/01 14 317 +2 193
2018/04/30 12 124 +3 384
2018/04/29 8 740 +2 420
2018/04/28 6 320 -9 657
2018/04/27 15 977 +6 625
2018/04/26 9 352 -1 023
2018/04/25 10 375 +1 497
2018/04/24 8 878 -7 099
2018/04/23 15 977 +3 558
2018/04/22 12 419 +6 928
2018/04/21 5 491 -4 316
2018/04/20 9 807 +43
2018/04/19 9 764 -5 022
2018/04/18 14 786 +4 286
2018/04/17 10 500 -31
2018/04/16 10 531 -812
2018/04/15 11 343 +2 537
2018/04/14 8 806 -1 917
2018/04/13 10 723 +2 769
2018/04/12 7 954 +190
2018/04/11 7 764 -1 386
2018/04/10 9 150 -4 340
2018/04/09 13 490 +1 199
2018/04/08 12 291 +3 910
2018/04/07 8 381 -4 493
2018/04/06 12 874 +2 997
2018/04/05 9 877 +201
2018/04/04 9 676 -2 414
2018/04/03 12 090 +5 342
2018/04/02 6 748 -2 200
2018/04/01 8 948 +1 982
2018/03/31 6 966 +107
2018/03/30 6 859 -7 602
2018/03/29 14 461 +6 436
2018/03/28 8 025 +1 087
2018/03/27 6 938

WIDGET FOR YOUR SITE

DOMAINS WITH THE NEAREST RANK

Domain Rank
speedtest.net.in 29 810
nsfas.org.za 29 811
royallepage.ca 29 812
tv.nu 29 813
wankz.com 29 814
airchina.com.cn 29 815
film720.net 29 816
dlsdm.com 29 817
380cc.cc 29 818
hr-manager.net 29 819
nationalarchives.gov.uk 29 820

DOMAINS WITH THE NEAREST RANK BY TLD .com.cn

Domain Rank
pchouse.com.cn 29 522
creditcard.com.cn 29 569
acadsoc.com.cn 29 621
legaldaily.com.cn 29 752
hoopchina.com.cn 29 785
airchina.com.cn 29 815
ruijie.com.cn 29 821
cwt-online.com.cn 30 273
zte.com.cn 30 849
dfrobot.com.cn 30 939
tp-link.com.cn 31 551